sensor_id;sensor_type;location;lat;lon;timestamp;temperature;humidity
13928;DHT22;7036;50.834;4.718;2022-08-19T00:01:33;26.20;57.50
13928;DHT22;7036;50.834;4.718;2022-08-19T00:04:01;26.20;57.50
13928;DHT22;7036;50.834;4.718;2022-08-19T00:06:26;26.20;57.40
13928;DHT22;7036;50.834;4.718;2022-08-19T00:08:53;26.20;57.50
13928;DHT22;7036;50.834;4.718;2022-08-19T00:11:21;26.20;57.60
13928;DHT22;7036;50.834;4.718;2022-08-19T00:13:48;26.20;57.60
13928;DHT22;7036;50.834;4.718;2022-08-19T00:16:15;26.20;57.50
13928;DHT22;7036;50.834;4.718;2022-08-19T00:18:41;26.20;57.50
13928;DHT22;7036;50.834;4.718;2022-08-19T00:21:08;26.20;57.50
13928;DHT22;7036;50.834;4.718;2022-08-19T00:23:36;26.20;57.50
13928;DHT22;7036;50.834;4.718;2022-08-19T00:26:06;26.20;57.50
13928;DHT22;7036;50.834;4.718;2022-08-19T00:28:32;26.20;57.50
13928;DHT22;7036;50.834;4.718;2022-08-19T00:30:59;26.20;57.50
13928;DHT22;7036;50.834;4.718;2022-08-19T00:33:26;26.20;57.50
13928;DHT22;7036;50.834;4.718;2022-08-19T00:35:54;26.20;57.50
13928;DHT22;7036;50.834;4.718;2022-08-19T00:38:19;26.20;57.50
13928;DHT22;7036;50.834;4.718;2022-08-19T00:40:46;26.10;57.50
13928;DHT22;7036;50.834;4.718;2022-08-19T00:43:14;26.20;57.50
13928;DHT22;7036;50.834;4.718;2022-08-19T00:45:40;26.10;57.50
13928;DHT22;7036;50.834;4.718;2022-08-19T00:48:10;26.10;57.50
13928;DHT22;7036;50.834;4.718;2022-08-19T00:50:38;26.10;57.50
13928;DHT22;7036;50.834;4.718;2022-08-19T00:53:03;26.10;57.50
13928;DHT22;7036;50.834;4.718;2022-08-19T00:55:31;26.10;57.50
13928;DHT22;7036;50.834;4.718;2022-08-19T00:57:59;26.10;57.50
13928;DHT22;7036;50.834;4.718;2022-08-19T01:00:25;26.10;57.50
13928;DHT22;7036;50.834;4.718;2022-08-19T01:02:52;26.10;57.50
13928;DHT22;7036;50.834;4.718;2022-08-19T01:05:24;26.10;57.50
13928;DHT22;7036;50.834;4.718;2022-08-19T01:07:45;26.10;57.50
13928;DHT22;7036;50.834;4.718;2022-08-19T01:10:14;26.10;57.60
13928;DHT22;7036;50.834;4.718;2022-08-19T01:12:39;26.10;57.60
13928;DHT22;7036;50.834;4.718;2022-08-19T01:15:07;26.10;57.50
13928;DHT22;7036;50.834;4.718;2022-08-19T01:17:33;26.10;57.50
13928;DHT22;7036;50.834;4.718;2022-08-19T01:20:00;26.10;57.50
13928;DHT22;7036;50.834;4.718;2022-08-19T01:22:47;26.10;57.50
13928;DHT22;7036;50.834;4.718;2022-08-19T01:24:58;26.10;57.60
13928;DHT22;7036;50.834;4.718;2022-08-19T01:27:25;26.10;57.60
13928;DHT22;7036;50.834;4.718;2022-08-19T01:29:52;26.10;57.50
13928;DHT22;7036;50.834;4.718;2022-08-19T01:32:20;26.10;57.50
13928;DHT22;7036;50.834;4.718;2022-08-19T01:34:47;26.10;57.50
13928;DHT22;7036;50.834;4.718;2022-08-19T01:37:14;26.10;57.60
13928;DHT22;7036;50.834;4.718;2022-08-19T01:39:41;26.10;57.50
13928;DHT22;7036;50.834;4.718;2022-08-19T01:42:08;26.10;57.60
13928;DHT22;7036;50.834;4.718;2022-08-19T01:44:34;26.10;57.60
13928;DHT22;7036;50.834;4.718;2022-08-19T01:47:02;26.10;57.60
13928;DHT22;7036;50.834;4.718;2022-08-19T01:49:28;26.10;57.60
13928;DHT22;7036;50.834;4.718;2022-08-19T01:51:56;26.00;57.60
13928;DHT22;7036;50.834;4.718;2022-08-19T01:54:23;26.00;57.60
13928;DHT22;7036;50.834;4.718;2022-08-19T01:56:54;26.00;57.50
13928;DHT22;7036;50.834;4.718;2022-08-19T01:59:21;26.00;57.70
13928;DHT22;7036;50.834;4.718;2022-08-19T02:01:48;26.00;57.60
13928;DHT22;7036;50.834;4.718;2022-08-19T02:04:15;26.00;57.60
13928;DHT22;7036;50.834;4.718;2022-08-19T02:06:42;26.00;57.50
13928;DHT22;7036;50.834;4.718;2022-08-19T02:09:08;26.00;57.60
13928;DHT22;7036;50.834;4.718;2022-08-19T02:11:37;26.00;57.20
13928;DHT22;7036;50.834;4.718;2022-08-19T02:14:04;26.00;57.60
13928;DHT22;7036;50.834;4.718;2022-08-19T02:16:30;26.00;57.50
13928;DHT22;7036;50.834;4.718;2022-08-19T02:18:57;26.00;57.50
13928;DHT22;7036;50.834;4.718;2022-08-19T02:21:24;26.00;57.50
13928;DHT22;7036;50.834;4.718;2022-08-19T02:23:51;26.00;57.60
13928;DHT22;7036;50.834;4.718;2022-08-19T02:26:18;26.00;57.10
13928;DHT22;7036;50.834;4.718;2022-08-19T02:28:45;26.00;57.60
13928;DHT22;7036;50.834;4.718;2022-08-19T02:31:13;26.00;57.60
13928;DHT22;7036;50.834;4.718;2022-08-19T02:33:39;26.00;58.20
13928;DHT22;7036;50.834;4.718;2022-08-19T02:36:06;26.00;57.60
13928;DHT22;7036;50.834;4.718;2022-08-19T02:38:33;26.00;57.50
13928;DHT22;7036;50.834;4.718;2022-08-19T02:41:03;26.00;57.60
13928;DHT22;7036;50.834;4.718;2022-08-19T02:43:27;26.00;57.50
13928;DHT22;7036;50.834;4.718;2022-08-19T02:45:54;26.00;57.60
13928;DHT22;7036;50.834;4.718;2022-08-19T02:48:21;26.00;57.60
13928;DHT22;7036;50.834;4.718;2022-08-19T02:50:49;26.00;57.60
13928;DHT22;7036;50.834;4.718;2022-08-19T02:53:14;26.00;57.60
13928;DHT22;7036;50.834;4.718;2022-08-19T02:55:47;25.90;57.50
13928;DHT22;7036;50.834;4.718;2022-08-19T02:58:14;26.00;57.50
13928;DHT22;7036;50.834;4.718;2022-08-19T03:00:44;25.90;57.50
13928;DHT22;7036;50.834;4.718;2022-08-19T03:03:10;26.00;57.60
13928;DHT22;7036;50.834;4.718;2022-08-19T03:05:37;25.90;57.50
13928;DHT22;7036;50.834;4.718;2022-08-19T03:08:05;25.90;57.50
13928;DHT22;7036;50.834;4.718;2022-08-19T03:10:32;25.90;57.50
13928;DHT22;7036;50.834;4.718;2022-08-19T03:12:58;25.90;57.50
13928;DHT22;7036;50.834;4.718;2022-08-19T03:15:25;25.90;57.50
13928;DHT22;7036;50.834;4.718;2022-08-19T03:17:52;25.90;58.10
13928;DHT22;7036;50.834;4.718;2022-08-19T03:20:19;25.90;57.50
13928;DHT22;7036;50.834;4.718;2022-08-19T03:22:46;25.90;57.50
13928;DHT22;7036;50.834;4.718;2022-08-19T03:25:13;25.90;57.50
13928;DHT22;7036;50.834;4.718;2022-08-19T03:27:40;25.90;57.50
13928;DHT22;7036;50.834;4.718;2022-08-19T03:30:07;25.90;57.40
13928;DHT22;7036;50.834;4.718;2022-08-19T03:32:34;25.90;57.50
13928;DHT22;7036;50.834;4.718;2022-08-19T03:35:01;25.90;57.50
13928;DHT22;7036;50.834;4.718;2022-08-19T03:37:27;25.90;57.40
13928;DHT22;7036;50.834;4.718;2022-08-19T03:39:54;25.90;57.40
13928;DHT22;7036;50.834;4.718;2022-08-19T03:42:21;25.90;57.50
13928;DHT22;7036;50.834;4.718;2022-08-19T03:44:49;25.90;57.60
13928;DHT22;7036;50.834;4.718;2022-08-19T03:47:16;25.80;57.40
13928;DHT22;7036;50.834;4.718;2022-08-19T03:49:43;25.90;57.40
13928;DHT22;7036;50.834;4.718;2022-08-19T03:52:09;25.90;57.50
13928;DHT22;7036;50.834;4.718;2022-08-19T03:54:36;25.90;57.40
13928;DHT22;7036;50.834;4.718;2022-08-19T03:57:03;25.80;57.40
13928;DHT22;7036;50.834;4.718;2022-08-19T03:59:31;25.90;57.40
13928;DHT22;7036;50.834;4.718;2022-08-19T04:01:58;25.90;57.40
13928;DHT22;7036;50.834;4.718;2022-08-19T04:04:24;25.80;57.30
13928;DHT22;7036;50.834;4.718;2022-08-19T04:06:51;25.80;57.30
13928;DHT22;7036;50.834;4.718;2022-08-19T04:09:18;25.80;57.30
13928;DHT22;7036;50.834;4.718;2022-08-19T04:11:50;25.80;57.40
13928;DHT22;7036;50.834;4.718;2022-08-19T04:14:16;25.80;57.30
13928;DHT22;7036;50.834;4.718;2022-08-19T04:16:42;25.80;57.30
13928;DHT22;7036;50.834;4.718;2022-08-19T04:19:08;25.80;57.30
13928;DHT22;7036;50.834;4.718;2022-08-19T04:21:35;25.80;57.30
13928;DHT22;7036;50.834;4.718;2022-08-19T04:24:03;25.80;57.30
13928;DHT22;7036;50.834;4.718;2022-08-19T04:26:33;25.80;57.40
13928;DHT22;7036;50.834;4.718;2022-08-19T04:28:57;25.80;57.30
13928;DHT22;7036;50.834;4.718;2022-08-19T04:31:25;25.80;57.30
13928;DHT22;7036;50.834;4.718;2022-08-19T04:33:55;25.80;57.40
13928;DHT22;7036;50.834;4.718;2022-08-19T04:36:21;25.80;57.30
13928;DHT22;7036;50.834;4.718;2022-08-19T04:38:47;25.80;57.30
13928;DHT22;7036;50.834;4.718;2022-08-19T04:41:14;25.80;57.30
13928;DHT22;7036;50.834;4.718;2022-08-19T04:43:59;25.80;57.30
13928;DHT22;7036;50.834;4.718;2022-08-19T04:46:26;25.80;57.30
13928;DHT22;7036;50.834;4.718;2022-08-19T04:48:53;25.80;57.30
13928;DHT22;7036;50.834;4.718;2022-08-19T04:51:20;25.80;57.30
13928;DHT22;7036;50.834;4.718;2022-08-19T04:53:47;25.80;57.20
13928;DHT22;7036;50.834;4.718;2022-08-19T04:56:15;25.80;57.20
13928;DHT22;7036;50.834;4.718;2022-08-19T04:58:42;25.80;57.30
13928;DHT22;7036;50.834;4.718;2022-08-19T05:01:08;25.80;57.30
13928;DHT22;7036;50.834;4.718;2022-08-19T05:03:35;25.70;57.20
13928;DHT22;7036;50.834;4.718;2022-08-19T05:06:09;25.80;57.20
13928;DHT22;7036;50.834;4.718;2022-08-19T05:08:34;25.80;57.20
13928;DHT22;7036;50.834;4.718;2022-08-19T05:11:06;25.70;57.20
13928;DHT22;7036;50.834;4.718;2022-08-19T05:13:28;25.70;57.20
13928;DHT22;7036;50.834;4.718;2022-08-19T05:15:56;25.70;57.20
13928;DHT22;7036;50.834;4.718;2022-08-19T05:18:23;25.70;57.20
13928;DHT22;7036;50.834;4.718;2022-08-19T05:21:08;25.70;57.00
13928;DHT22;7036;50.834;4.718;2022-08-19T05:23:53;25.70;56.90
13928;DHT22;7036;50.834;4.718;2022-08-19T05:26:21;25.70;57.10
13928;DHT22;7036;50.834;4.718;2022-08-19T05:28:48;25.60;56.80
13928;DHT22;7036;50.834;4.718;2022-08-19T05:31:15;25.70;56.90
13928;DHT22;7036;50.834;4.718;2022-08-19T05:33:42;25.70;56.90
13928;DHT22;7036;50.834;4.718;2022-08-19T05:36:09;25.60;56.90
13928;DHT22;7036;50.834;4.718;2022-08-19T05:38:36;25.60;57.00
13928;DHT22;7036;50.834;4.718;2022-08-19T05:41:09;25.60;57.10
13928;DHT22;7036;50.834;4.718;2022-08-19T05:43:36;25.60;57.00
13928;DHT22;7036;50.834;4.718;2022-08-19T05:46:03;25.60;57.20
13928;DHT22;7036;50.834;4.718;2022-08-19T05:48:29;25.60;57.00
13928;DHT22;7036;50.834;4.718;2022-08-19T05:50:56;25.60;57.00
13928;DHT22;7036;50.834;4.718;2022-08-19T05:53:23;25.60;57.10
13928;DHT22;7036;50.834;4.718;2022-08-19T05:55:50;25.70;57.20
13928;DHT22;7036;50.834;4.718;2022-08-19T05:58:17;25.70;57.20
13928;DHT22;7036;50.834;4.718;2022-08-19T06:00:44;25.70;57.20
13928;DHT22;7036;50.834;4.718;2022-08-19T06:03:11;25.70;57.20
13928;DHT22;7036;50.834;4.718;2022-08-19T06:05:41;25.60;57.20
13928;DHT22;7036;50.834;4.718;2022-08-19T06:08:07;25.60;57.10
13928;DHT22;7036;50.834;4.718;2022-08-19T06:10:34;25.60;57.20
13928;DHT22;7036;50.834;4.718;2022-08-19T06:13:01;25.60;57.20
13928;DHT22;7036;50.834;4.718;2022-08-19T06:15:28;25.60;57.20
13928;DHT22;7036;50.834;4.718;2022-08-19T06:17:55;25.70;57.40
13928;DHT22;7036;50.834;4.718;2022-08-19T06:20:22;25.70;57.30
13928;DHT22;7036;50.834;4.718;2022-08-19T06:22:49;25.70;57.30
13928;DHT22;7036;50.834;4.718;2022-08-19T06:25:16;25.70;57.30
13928;DHT22;7036;50.834;4.718;2022-08-19T06:27:43;25.70;57.30
13928;DHT22;7036;50.834;4.718;2022-08-19T06:30:10;25.70;57.30
13928;DHT22;7036;50.834;4.718;2022-08-19T06:32:37;25.70;57.40
13928;DHT22;7036;50.834;4.718;2022-08-19T06:35:04;25.70;57.40
13928;DHT22;7036;50.834;4.718;2022-08-19T06:37:31;25.70;57.50
13928;DHT22;7036;50.834;4.718;2022-08-19T06:39:58;25.70;57.50
13928;DHT22;7036;50.834;4.718;2022-08-19T06:42:25;25.70;57.40
13928;DHT22;7036;50.834;4.718;2022-08-19T06:44:52;25.70;57.40
13928;DHT22;7036;50.834;4.718;2022-08-19T06:47:20;25.70;57.40
13928;DHT22;7036;50.834;4.718;2022-08-19T06:49:45;25.70;57.40
13928;DHT22;7036;50.834;4.718;2022-08-19T06:52:12;25.70;57.40
13928;DHT22;7036;50.834;4.718;2022-08-19T06:54:42;25.70;57.30
13928;DHT22;7036;50.834;4.718;2022-08-19T06:57:09;25.70;57.30
13928;DHT22;7036;50.834;4.718;2022-08-19T06:59:36;25.70;57.40
13928;DHT22;7036;50.834;4.718;2022-08-19T07:02:03;25.80;57.30
13928;DHT22;7036;50.834;4.718;2022-08-19T07:04:30;25.80;57.40
13928;DHT22;7036;50.834;4.718;2022-08-19T07:07:01;25.80;57.40
13928;DHT22;7036;50.834;4.718;2022-08-19T07:09:26;25.80;57.50
13928;DHT22;7036;50.834;4.718;2022-08-19T07:11:53;25.80;57.30
13928;DHT22;7036;50.834;4.718;2022-08-19T07:14:21;25.80;57.40
13928;DHT22;7036;50.834;4.718;2022-08-19T07:16:47;25.80;57.30
13928;DHT22;7036;50.834;4.718;2022-08-19T07:19:14;25.90;57.40
13928;DHT22;7036;50.834;4.718;2022-08-19T07:21:41;25.90;57.40
13928;DHT22;7036;50.834;4.718;2022-08-19T07:24:08;25.90;57.50
13928;DHT22;7036;50.834;4.718;2022-08-19T07:26:37;25.90;57.40
13928;DHT22;7036;50.834;4.718;2022-08-19T07:29:01;26.00;57.60
13928;DHT22;7036;50.834;4.718;2022-08-19T07:31:28;26.00;57.70
13928;DHT22;7036;50.834;4.718;2022-08-19T07:33:55;26.00;57.70
13928;DHT22;7036;50.834;4.718;2022-08-19T07:36:24;26.00;58.20
13928;DHT22;7036;50.834;4.718;2022-08-19T07:38:50;26.00;58.10
13928;DHT22;7036;50.834;4.718;2022-08-19T07:41:18;26.10;58.10
13928;DHT22;7036;50.834;4.718;2022-08-19T07:43:44;26.10;58.80
13928;DHT22;7036;50.834;4.718;2022-08-19T07:46:11;26.10;58.00
13928;DHT22;7036;50.834;4.718;2022-08-19T07:48:37;26.10;58.40
13928;DHT22;7036;50.834;4.718;2022-08-19T07:51:05;26.10;58.30
13928;DHT22;7036;50.834;4.718;2022-08-19T07:53:31;26.10;58.10
13928;DHT22;7036;50.834;4.718;2022-08-19T07:55:59;26.00;58.90
13928;DHT22;7036;50.834;4.718;2022-08-19T07:58:25;25.90;58.70
13928;DHT22;7036;50.834;4.718;2022-08-19T08:00:52;26.00;59.10
13928;DHT22;7036;50.834;4.718;2022-08-19T08:03:20;26.00;59.10
13928;DHT22;7036;50.834;4.718;2022-08-19T08:05:46;26.00;58.90
13928;DHT22;7036;50.834;4.718;2022-08-19T08:08:32;26.10;59.20
13928;DHT22;7036;50.834;4.718;2022-08-19T08:11:18;26.00;59.00
13928;DHT22;7036;50.834;4.718;2022-08-19T08:13:44;26.10;59.10
13928;DHT22;7036;50.834;4.718;2022-08-19T08:16:11;26.10;59.30
13928;DHT22;7036;50.834;4.718;2022-08-19T08:18:37;26.10;59.10
13928;DHT22;7036;50.834;4.718;2022-08-19T08:21:05;26.10;59.00
13928;DHT22;7036;50.834;4.718;2022-08-19T08:23:32;26.10;59.10
13928;DHT22;7036;50.834;4.718;2022-08-19T08:25:59;26.10;59.00
13928;DHT22;7036;50.834;4.718;2022-08-19T08:28:26;26.10;59.20
13928;DHT22;7036;50.834;4.718;2022-08-19T08:30:53;26.10;59.20
13928;DHT22;7036;50.834;4.718;2022-08-19T08:33:21;26.10;59.30
13928;DHT22;7036;50.834;4.718;2022-08-19T08:35:46;26.10;59.50
13928;DHT22;7036;50.834;4.718;2022-08-19T08:38:13;26.20;59.60
13928;DHT22;7036;50.834;4.718;2022-08-19T08:40:48;26.10;58.90
13928;DHT22;7036;50.834;4.718;2022-08-19T08:43:30;26.10;59.30
13928;DHT22;7036;50.834;4.718;2022-08-19T08:46:00;26.10;59.30
13928;DHT22;7036;50.834;4.718;2022-08-19T08:48:37;26.10;59.10
13928;DHT22;7036;50.834;4.718;2022-08-19T08:51:03;26.10;59.00
13928;DHT22;7036;50.834;4.718;2022-08-19T08:53:30;26.10;59.30
13928;DHT22;7036;50.834;4.718;2022-08-19T08:55:58;26.20;59.40
13928;DHT22;7036;50.834;4.718;2022-08-19T08:58:46;26.20;59.30
13928;DHT22;7036;50.834;4.718;2022-08-19T09:00:55;26.20;59.60
13928;DHT22;7036;50.834;4.718;2022-08-19T09:03:24;26.20;59.50
13928;DHT22;7036;50.834;4.718;2022-08-19T09:05:59;26.20;59.70
13928;DHT22;7036;50.834;4.718;2022-08-19T09:16:57;26.20;59.50
13928;DHT22;7036;50.834;4.718;2022-08-19T09:19:24;26.20;59.70
13928;DHT22;7036;50.834;4.718;2022-08-19T09:21:51;26.20;59.40
13928;DHT22;7036;50.834;4.718;2022-08-19T09:24:18;26.20;59.40
13928;DHT22;7036;50.834;4.718;2022-08-19T09:26:45;26.10;59.50
13928;DHT22;7036;50.834;4.718;2022-08-19T09:29:12;26.10;59.80
13928;DHT22;7036;50.834;4.718;2022-08-19T09:31:38;26.10;59.80
13928;DHT22;7036;50.834;4.718;2022-08-19T09:34:05;26.20;59.90
13928;DHT22;7036;50.834;4.718;2022-08-19T09:36:32;26.20;59.80
13928;DHT22;7036;50.834;4.718;2022-08-19T09:38:59;26.10;60.00
13928;DHT22;7036;50.834;4.718;2022-08-19T09:41:26;26.10;60.00
13928;DHT22;7036;50.834;4.718;2022-08-19T09:43:54;26.00;60.00
13928;DHT22;7036;50.834;4.718;2022-08-19T09:46:20;26.10;60.20
13928;DHT22;7036;50.834;4.718;2022-08-19T09:48:50;26.10;60.50
13928;DHT22;7036;50.834;4.718;2022-08-19T09:51:19;26.10;60.90
13928;DHT22;7036;50.834;4.718;2022-08-19T09:53:44;26.10;60.70
13928;DHT22;7036;50.834;4.718;2022-08-19T09:56:11;26.20;60.60
13928;DHT22;7036;50.834;4.718;2022-08-19T09:58:39;26.20;60.70
13928;DHT22;7036;50.834;4.718;2022-08-19T10:01:06;26.20;60.90
13928;DHT22;7036;50.834;4.718;2022-08-19T10:03:33;26.30;61.30
13928;DHT22;7036;50.834;4.718;2022-08-19T10:06:00;26.30;61.10
13928;DHT22;7036;50.834;4.718;2022-08-19T10:08:27;26.30;61.30
13928;DHT22;7036;50.834;4.718;2022-08-19T10:10:53;26.30;61.30
13928;DHT22;7036;50.834;4.718;2022-08-19T10:13:20;26.30;61.30
13928;DHT22;7036;50.834;4.718;2022-08-19T10:15:49;26.30;61.40
13928;DHT22;7036;50.834;4.718;2022-08-19T10:18:19;26.40;60.80
13928;DHT22;7036;50.834;4.718;2022-08-19T10:20:46;26.40;60.80
13928;DHT22;7036;50.834;4.718;2022-08-19T10:23:12;26.40;60.40
13928;DHT22;7036;50.834;4.718;2022-08-19T10:25:39;26.40;60.30
13928;DHT22;7036;50.834;4.718;2022-08-19T10:28:06;26.40;60.30
13928;DHT22;7036;50.834;4.718;2022-08-19T10:30:35;26.40;60.20
13928;DHT22;7036;50.834;4.718;2022-08-19T10:33:00;26.40;60.00
13928;DHT22;7036;50.834;4.718;2022-08-19T10:35:27;26.40;60.10
13928;DHT22;7036;50.834;4.718;2022-08-19T10:37:54;26.40;60.20
13928;DHT22;7036;50.834;4.718;2022-08-19T10:40:21;26.40;60.40
13928;DHT22;7036;50.834;4.718;2022-08-19T10:42:48;26.40;60.60
13928;DHT22;7036;50.834;4.718;2022-08-19T10:45:15;26.40;60.70
13928;DHT22;7036;50.834;4.718;2022-08-19T10:47:42;26.40;61.10
13928;DHT22;7036;50.834;4.718;2022-08-19T10:50:09;26.40;61.10
13928;DHT22;7036;50.834;4.718;2022-08-19T10:52:54;26.40;61.10
13928;DHT22;7036;50.834;4.718;2022-08-19T10:55:21;26.40;60.90
13928;DHT22;7036;50.834;4.718;2022-08-19T10:58:12;26.40;61.20
13928;DHT22;7036;50.834;4.718;2022-08-19T11:00:38;26.40;61.20
13928;DHT22;7036;50.834;4.718;2022-08-19T11:03:05;26.40;61.00
13928;DHT22;7036;50.834;4.718;2022-08-19T11:05:32;26.40;61.30
13928;DHT22;7036;50.834;4.718;2022-08-19T11:07:58;26.40;60.80
13928;DHT22;7036;50.834;4.718;2022-08-19T11:10:25;26.40;60.40
13928;DHT22;7036;50.834;4.718;2022-08-19T11:12:52;26.40;60.40
13928;DHT22;7036;50.834;4.718;2022-08-19T11:15:19;26.40;61.00
13928;DHT22;7036;50.834;4.718;2022-08-19T11:17:46;26.40;61.10
13928;DHT22;7036;50.834;4.718;2022-08-19T11:20:14;26.40;61.10
13928;DHT22;7036;50.834;4.718;2022-08-19T11:22:40;26.40;61.00
13928;DHT22;7036;50.834;4.718;2022-08-19T11:25:07;26.30;61.00
13928;DHT22;7036;50.834;4.718;2022-08-19T11:27:36;26.40;61.10
13928;DHT22;7036;50.834;4.718;2022-08-19T11:30:01;26.40;61.00
13928;DHT22;7036;50.834;4.718;2022-08-19T11:32:27;26.40;61.20
13928;DHT22;7036;50.834;4.718;2022-08-19T11:34:54;26.40;61.30
13928;DHT22;7036;50.834;4.718;2022-08-19T11:37:21;26.40;61.20
13928;DHT22;7036;50.834;4.718;2022-08-19T11:39:51;26.40;61.30
13928;DHT22;7036;50.834;4.718;2022-08-19T11:42:17;26.40;61.30
13928;DHT22;7036;50.834;4.718;2022-08-19T11:44:48;26.40;61.40
13928;DHT22;7036;50.834;4.718;2022-08-19T11:47:15;26.40;61.40
13928;DHT22;7036;50.834;4.718;2022-08-19T11:49:42;26.40;61.80
13928;DHT22;7036;50.834;4.718;2022-08-19T11:52:09;26.40;61.50
13928;DHT22;7036;50.834;4.718;2022-08-19T11:54:35;26.40;61.80
13928;DHT22;7036;50.834;4.718;2022-08-19T11:57:03;26.40;61.50
13928;DHT22;7036;50.834;4.718;2022-08-19T11:59:29;26.40;61.50
13928;DHT22;7036;50.834;4.718;2022-08-19T12:01:56;26.40;61.70
13928;DHT22;7036;50.834;4.718;2022-08-19T12:04:23;26.40;61.70
13928;DHT22;7036;50.834;4.718;2022-08-19T12:06:50;26.40;62.00
13928;DHT22;7036;50.834;4.718;2022-08-19T12:09:17;26.40;61.50
13928;DHT22;7036;50.834;4.718;2022-08-19T12:11:44;26.40;61.60
13928;DHT22;7036;50.834;4.718;2022-08-19T12:14:12;26.40;61.80
13928;DHT22;7036;50.834;4.718;2022-08-19T12:16:38;26.40;62.00
13928;DHT22;7036;50.834;4.718;2022-08-19T12:19:05;26.40;61.90
13928;DHT22;7036;50.834;4.718;2022-08-19T12:21:34;26.40;61.90
13928;DHT22;7036;50.834;4.718;2022-08-19T12:23:59;26.30;62.10
13928;DHT22;7036;50.834;4.718;2022-08-19T12:26:27;26.30;62.00
13928;DHT22;7036;50.834;4.718;2022-08-19T12:28:53;26.30;62.10
13928;DHT22;7036;50.834;4.718;2022-08-19T12:31:23;26.30;61.90
13928;DHT22;7036;50.834;4.718;2022-08-19T12:33:47;26.40;62.10
13928;DHT22;7036;50.834;4.718;2022-08-19T12:36:15;26.40;61.80
13928;DHT22;7036;50.834;4.718;2022-08-19T12:38:41;26.40;61.90
13928;DHT22;7036;50.834;4.718;2022-08-19T12:41:09;26.40;61.90
13928;DHT22;7036;50.834;4.718;2022-08-19T12:43:35;26.40;61.70
13928;DHT22;7036;50.834;4.718;2022-08-19T12:46:02;26.40;62.10
13928;DHT22;7036;50.834;4.718;2022-08-19T12:48:28;26.40;61.80
13928;DHT22;7036;50.834;4.718;2022-08-19T12:50:55;26.40;61.80
13928;DHT22;7036;50.834;4.718;2022-08-19T12:53:22;26.40;61.80
13928;DHT22;7036;50.834;4.718;2022-08-19T12:55:58;26.40;62.00
13928;DHT22;7036;50.834;4.718;2022-08-19T12:58:16;26.40;62.20
13928;DHT22;7036;50.834;4.718;2022-08-19T13:00:43;26.40;62.20
13928;DHT22;7036;50.834;4.718;2022-08-19T13:03:10;26.40;62.00
13928;DHT22;7036;50.834;4.718;2022-08-19T13:05:37;26.40;62.00
13928;DHT22;7036;50.834;4.718;2022-08-19T13:08:04;26.40;62.10
13928;DHT22;7036;50.834;4.718;2022-08-19T13:10:33;26.40;62.30
13928;DHT22;7036;50.834;4.718;2022-08-19T13:12:58;26.50;62.20
13928;DHT22;7036;50.834;4.718;2022-08-19T13:15:25;26.40;62.20
13928;DHT22;7036;50.834;4.718;2022-08-19T13:17:54;26.40;62.20
13928;DHT22;7036;50.834;4.718;2022-08-19T13:20:19;26.50;62.20
13928;DHT22;7036;50.834;4.718;2022-08-19T13:22:46;26.50;62.30
13928;DHT22;7036;50.834;4.718;2022-08-19T13:25:12;26.50;62.10
13928;DHT22;7036;50.834;4.718;2022-08-19T13:27:40;26.50;61.80
13928;DHT22;7036;50.834;4.718;2022-08-19T13:30:08;26.50;62.20
13928;DHT22;7036;50.834;4.718;2022-08-19T13:32:53;26.50;62.80
13928;DHT22;7036;50.834;4.718;2022-08-19T13:36:00;26.60;63.40
13928;DHT22;7036;50.834;4.718;2022-08-19T13:38:05;26.50;62.40
13928;DHT22;7036;50.834;4.718;2022-08-19T13:40:32;26.60;62.20
13928;DHT22;7036;50.834;4.718;2022-08-19T13:43:02;26.60;62.30
13928;DHT22;7036;50.834;4.718;2022-08-19T13:45:29;26.60;62.60
13928;DHT22;7036;50.834;4.718;2022-08-19T13:47:56;26.60;62.60
13928;DHT22;7036;50.834;4.718;2022-08-19T13:50:24;26.60;62.50
13928;DHT22;7036;50.834;4.718;2022-08-19T13:52:51;26.60;62.90
13928;DHT22;7036;50.834;4.718;2022-08-19T13:55:17;26.70;63.50
13928;DHT22;7036;50.834;4.718;2022-08-19T13:57:44;26.70;63.60
13928;DHT22;7036;50.834;4.718;2022-08-19T14:00:18;26.70;63.30
13928;DHT22;7036;50.834;4.718;2022-08-19T14:02:46;26.70;63.40
13928;DHT22;7036;50.834;4.718;2022-08-19T14:05:16;26.70;63.10
13928;DHT22;7036;50.834;4.718;2022-08-19T14:07:43;26.70;62.70
13928;DHT22;7036;50.834;4.718;2022-08-19T14:10:12;26.70;63.00
13928;DHT22;7036;50.834;4.718;2022-08-19T14:12:38;26.70;62.70
13928;DHT22;7036;50.834;4.718;2022-08-19T14:15:06;26.70;63.10
13928;DHT22;7036;50.834;4.718;2022-08-19T14:17:33;26.70;63.00
13928;DHT22;7036;50.834;4.718;2022-08-19T14:20:03;26.70;62.90
13928;DHT22;7036;50.834;4.718;2022-08-19T14:22:31;26.70;62.60
13928;DHT22;7036;50.834;4.718;2022-08-19T14:24:58;26.70;62.40
13928;DHT22;7036;50.834;4.718;2022-08-19T14:27:25;26.70;62.60
13928;DHT22;7036;50.834;4.718;2022-08-19T14:29:53;26.70;62.90
13928;DHT22;7036;50.834;4.718;2022-08-19T14:32:22;26.70;62.80
13928;DHT22;7036;50.834;4.718;2022-08-19T14:34:51;26.80;62.70
13928;DHT22;7036;50.834;4.718;2022-08-19T14:37:19;26.70;62.70
13928;DHT22;7036;50.834;4.718;2022-08-19T14:39:45;26.80;62.70
13928;DHT22;7036;50.834;4.718;2022-08-19T14:42:12;26.80;62.60
13928;DHT22;7036;50.834;4.718;2022-08-19T14:44:39;26.80;63.00
13928;DHT22;7036;50.834;4.718;2022-08-19T14:47:06;26.80;62.60
13928;DHT22;7036;50.834;4.718;2022-08-19T14:49:33;26.80;62.60
13928;DHT22;7036;50.834;4.718;2022-08-19T14:52:00;26.80;62.70
13928;DHT22;7036;50.834;4.718;2022-08-19T14:54:27;26.90;62.50
13928;DHT22;7036;50.834;4.718;2022-08-19T14:56:54;26.90;62.50
13928;DHT22;7036;50.834;4.718;2022-08-19T14:59:21;26.90;62.20
13928;DHT22;7036;50.834;4.718;2022-08-19T15:01:47;26.80;62.20
13928;DHT22;7036;50.834;4.718;2022-08-19T15:04:14;26.90;62.20
13928;DHT22;7036;50.834;4.718;2022-08-19T15:06:41;26.90;62.00
13928;DHT22;7036;50.834;4.718;2022-08-19T15:09:09;26.90;62.30
13928;DHT22;7036;50.834;4.718;2022-08-19T15:11:35;26.90;62.30
13928;DHT22;7036;50.834;4.718;2022-08-19T15:14:02;26.90;62.30
13928;DHT22;7036;50.834;4.718;2022-08-19T15:16:29;26.90;62.40
13928;DHT22;7036;50.834;4.718;2022-08-19T15:18:57;26.90;62.10
13928;DHT22;7036;50.834;4.718;2022-08-19T15:21:26;26.90;62.30
13928;DHT22;7036;50.834;4.718;2022-08-19T15:23:50;26.90;62.20
13928;DHT22;7036;50.834;4.718;2022-08-19T15:26:18;26.90;62.30
13928;DHT22;7036;50.834;4.718;2022-08-19T15:28:44;26.90;62.30
13928;DHT22;7036;50.834;4.718;2022-08-19T15:31:11;26.90;62.50
13928;DHT22;7036;50.834;4.718;2022-08-19T15:33:38;26.90;62.70
13928;DHT22;7036;50.834;4.718;2022-08-19T15:36:05;26.90;62.10
13928;DHT22;7036;50.834;4.718;2022-08-19T15:38:34;26.80;62.00
13928;DHT22;7036;50.834;4.718;2022-08-19T15:41:01;26.80;61.90
13928;DHT22;7036;50.834;4.718;2022-08-19T15:43:46;26.80;62.40
13928;DHT22;7036;50.834;4.718;2022-08-19T15:46:15;26.70;62.90
13928;DHT22;7036;50.834;4.718;2022-08-19T15:48:39;26.70;63.30
13928;DHT22;7036;50.834;4.718;2022-08-19T15:51:08;26.70;63.80
13928;DHT22;7036;50.834;4.718;2022-08-19T15:53:34;26.70;64.00
13928;DHT22;7036;50.834;4.718;2022-08-19T15:56:01;26.70;63.80